Time;durP1;ratioP1;P1;durP2;ratioP2;P2;SDS_P1;SDS_P2;PMS_P1;PMS_P2;Temp;Humidity;BMP_temperature;BMP_pressure;BME280_temperature;BME280_humidity;BME280_pressure;Samples;Min_cycle;Max_cycle;Signal;HPM_P1;HPM_P2
2022/02/25 00:00:27;;;;;;;2.70;1.50;;;2.90;96.90;;;;;;4980264;28;20495;-60
2022/02/25 00:02:53;;;;;;;1.20;1.20;;;2.90;98.30;;;;;;4983807;28;20424;-59
2022/02/25 00:05:18;;;;;;;1.50;1.40;;;2.80;98.20;;;;;;4991527;28;20963;-58
2022/02/25 00:07:44;;;;;;;1.17;1.13;;;2.80;98.20;;;;;;5000137;28;20180;-58
2022/02/25 00:10:10;;;;;;;1.90;1.77;;;2.80;99.00;;;;;;4991592;28;20292;-58
2022/02/25 00:12:37;;;;;;;3.07;1.30;;;2.80;98.00;;;;;;4988916;28;20177;-58
2022/02/25 00:15:03;;;;;;;3.87;1.50;;;2.80;97.80;;;;;;4992176;28;20474;-57
2022/02/25 00:17:29;;;;;;;2.83;1.50;;;2.80;99.20;;;;;;4982841;28;20437;-60
2022/02/25 00:19:54;;;;;;;2.30;1.60;;;2.80;99.40;;;;;;4990291;28;20464;-58
2022/02/25 00:22:20;;;;;;;1.30;1.20;;;2.90;98.90;;;;;;4991349;28;20208;-59
2022/02/25 00:24:46;;;;;;;3.57;1.60;;;2.80;99.80;;;;;;4991315;28;20252;-58
2022/02/25 00:27:11;;;;;;;2.53;1.60;;;2.90;99.30;;;;;;4989880;28;20264;-59
2022/02/25 00:29:37;;;;;;;4.67;1.90;;;2.80;99.80;;;;;;4989113;28;20201;-58
2022/02/25 00:32:03;;;;;;;2.30;1.67;;;2.80;99.90;;;;;;4990814;28;20220;-58
2022/02/25 00:34:28;;;;;;;4.43;1.97;;;2.80;99.90;;;;;;4989061;28;20183;-59
2022/02/25 00:36:54;;;;;;;4.17;1.67;;;2.80;99.90;;;;;;4990292;28;20606;-60
2022/02/25 00:39:20;;;;;;;3.57;1.70;;;2.80;99.90;;;;;;4990772;28;20646;-58
2022/02/25 00:41:45;;;;;;;5.57;1.73;;;2.80;99.90;;;;;;4989546;28;20233;-58
2022/02/25 00:44:11;;;;;;;2.40;1.40;;;2.80;99.90;;;;;;4990120;28;20176;-59
2022/02/25 00:46:36;;;;;;;6.53;2.33;;;2.80;99.90;;;;;;4984488;28;20188;-58
2022/02/25 00:49:02;;;;;;;2.20;1.57;;;2.80;99.90;;;;;;4990900;28;20196;-59
2022/02/25 00:51:28;;;;;;;3.23;1.80;;;2.70;99.90;;;;;;4986824;28;20267;-59
2022/02/25 00:53:53;;;;;;;2.43;1.53;;;2.70;99.90;;;;;;4988299;28;20689;-58
2022/02/25 00:56:21;;;;;;;2.27;1.53;;;2.70;99.90;;;;;;4990885;28;20180;-58
2022/02/25 00:58:47;;;;;;;2.07;1.60;;;2.70;99.90;;;;;;4990697;28;20180;-58
2022/02/25 01:01:13;;;;;;;2.47;1.60;;;2.70;99.90;;;;;;4989287;28;20580;-59
2022/02/25 01:03:38;;;;;;;2.90;1.37;;;2.70;99.90;;;;;;4988360;28;20185;-59
2022/02/25 01:06:04;;;;;;;1.60;1.50;;;2.60;99.90;;;;;;4987666;28;20194;-58
2022/02/25 01:08:30;;;;;;;1.90;1.50;;;2.50;99.90;;;;;;4986403;28;20185;-59
2022/02/25 01:10:55;;;;;;;1.33;1.20;;;2.50;99.90;;;;;;4987963;28;20228;-58
2022/02/25 01:13:21;;;;;;;1.57;1.30;;;2.40;99.90;;;;;;4992262;28;20181;-59
2022/02/25 01:15:47;;;;;;;0.90;0.90;;;2.40;99.90;;;;;;4989286;28;20711;-59
2022/02/25 01:18:12;;;;;;;1.20;1.10;;;2.30;99.90;;;;;;4990212;28;20227;-59
2022/02/25 01:20:38;;;;;;;1.10;1.00;;;2.30;99.90;;;;;;4985693;28;20317;-59
2022/02/25 01:23:04;;;;;;;1.63;1.20;;;2.20;99.90;;;;;;4987164;28;20231;-59
2022/02/25 01:25:30;;;;;;;1.27;1.17;;;2.20;99.90;;;;;;4987353;28;20188;-58
2022/02/25 01:27:56;;;;;;;1.33;1.03;;;2.20;99.90;;;;;;4990027;28;20831;-58
2022/02/25 01:30:21;;;;;;;3.33;1.20;;;2.10;99.90;;;;;;4990505;28;20458;-59
2022/02/25 01:32:47;;;;;;;2.57;1.40;;;2.10;99.90;;;;;;4990692;28;20670;-59
2022/02/25 01:35:13;;;;;;;1.50;1.40;;;2.10;99.90;;;;;;4987462;28;20177;-59
2022/02/25 01:37:38;;;;;;;2.03;1.40;;;2.10;99.90;;;;;;4986966;28;20189;-58
2022/02/25 01:40:05;;;;;;;1.30;1.20;;;2.10;99.90;;;;;;4987476;28;20205;-58
2022/02/25 01:42:30;;;;;;;1.63;1.40;;;2.10;99.90;;;;;;4986889;28;20217;-58
2022/02/25 01:44:56;;;;;;;2.40;1.30;;;2.10;99.90;;;;;;4990682;28;21886;-58
2022/02/25 01:47:21;;;;;;;3.73;1.63;;;2.10;99.90;;;;;;4988293;28;20707;-58
2022/02/25 01:49:47;;;;;;;1.30;1.30;;;2.00;99.10;;;;;;5004354;28;20202;-58
2022/02/25 01:52:16;;;;;;;6.00;1.63;;;2.00;99.90;;;;;;4989850;28;20197;-58
2022/02/25 01:54:46;;;;;;;3.60;1.43;;;2.00;99.20;;;;;;4986869;28;20193;-58
2022/02/25 01:57:15;;;;;;;7.93;1.50;;;2.10;98.00;;;;;;4986684;28;20499;-58
2022/02/25 01:59:42;;;;;;;2.00;1.30;;;2.10;93.50;;;;;;4989237;28;20545;-57
2022/02/25 02:02:08;;;;;;;2.53;1.50;;;2.00;94.60;;;;;;4984845;28;20431;-58
2022/02/25 02:04:35;;;;;;;4.40;1.60;;;2.00;94.80;;;;;;4987201;28;20468;-58
2022/02/25 02:07:01;;;;;;;3.47;1.40;;;2.00;95.20;;;;;;4988903;28;20447;-59
2022/02/25 02:09:27;;;;;;;4.93;1.60;;;2.00;93.00;;;;;;4985022;28;20854;-58
2022/02/25 02:11:54;;;;;;;1.40;1.30;;;2.00;91.80;;;;;;4987866;28;20463;-58
2022/02/25 02:14:22;;;;;;;3.73;1.80;;;2.00;90.90;;;;;;4986374;28;20514;-58
2022/02/25 02:16:50;;;;;;;8.17;1.60;;;2.00;88.20;;;;;;4988585;28;20971;-58
2022/02/25 02:19:16;;;;;;;1.40;1.30;;;2.00;86.90;;;;;;4986283;28;20512;-58
2022/02/25 02:21:47;;;;;;;5.50;1.53;;;2.00;86.30;;;;;;4987917;28;20440;-58
2022/02/25 02:24:15;;;;;;;6.57;2.13;;;2.00;84.70;;;;;;4989187;28;20423;-58
2022/02/25 02:26:42;;;;;;;1.60;1.47;;;1.90;84.40;;;;;;4990770;28;20479;-59
2022/02/25 02:29:08;;;;;;;3.60;1.57;;;1.90;82.30;;;;;;4987830;28;20435;-58
2022/02/25 02:31:35;;;;;;;1.40;1.30;;;1.90;81.60;;;;;;4987048;28;20821;-58
2022/02/25 02:34:00;;;;;;;2.60;1.10;;;1.90;82.10;;;;;;4987176;28;20604;-58
2022/02/25 02:36:26;;;;;;;2.90;1.40;;;1.90;79.70;;;;;;4985832;28;20530;-57
2022/02/25 02:38:52;;;;;;;3.20;1.47;;;1.90;77.60;;;;;;4986405;28;20176;-58
2022/02/25 02:41:17;;;;;;;4.13;1.40;;;1.80;76.50;;;;;;4987884;28;20629;-57
2022/02/25 02:43:43;;;;;;;7.07;1.40;;;1.80;78.10;;;;;;4989101;28;20180;-58
2022/02/25 02:46:11;;;;;;;3.13;1.30;;;1.80;81.50;;;;;;4987690;28;20199;-59
2022/02/25 02:48:38;;;;;;;6.37;1.77;;;1.90;81.70;;;;;;4988485;28;20419;-58
2022/02/25 02:51:04;;;;;;;3.70;2.10;;;1.90;80.50;;;;;;4988255;28;20473;-59
2022/02/25 02:53:29;;;;;;;5.43;1.47;;;1.90;82.80;;;;;;4985036;28;20432;-59
2022/02/25 02:55:55;;;;;;;4.80;1.37;;;1.90;84.60;;;;;;4987809;28;20424;-58
2022/02/25 02:58:21;;;;;;;4.20;1.70;;;1.90;86.70;;;;;;4992037;28;20179;-58
2022/02/25 03:00:49;;;;;;;1.33;1.23;;;1.90;86.10;;;;;;4989218;28;20282;-57
2022/02/25 03:03:15;;;;;;;2.67;1.20;;;1.90;81.80;;;;;;4980120;28;20180;-58
2022/02/25 03:05:41;;;;;;;2.07;1.30;;;1.90;82.60;;;;;;4984261;28;20412;-58
2022/02/25 03:08:08;;;;;;;2.97;1.37;;;2.00;82.30;;;;;;4985620;28;20437;-58
2022/02/25 03:10:36;;;;;;;3.57;1.23;;;2.00;82.00;;;;;;4984850;28;21030;-58
2022/02/25 03:13:03;;;;;;;2.10;1.40;;;2.00;81.00;;;;;;4982614;28;20815;-59
2022/02/25 03:15:29;;;;;;;2.70;1.60;;;2.00;81.30;;;;;;4982202;28;20463;-59
2022/02/25 03:17:55;;;;;;;3.57;2.00;;;2.00;81.60;;;;;;4984894;28;20420;-59
2022/02/25 03:20:24;;;;;;;9.30;2.03;;;2.00;82.10;;;;;;4982995;28;20208;-59
2022/02/25 03:22:50;;;;;;;3.97;1.27;;;2.10;83.10;;;;;;4984931;28;20248;-59
2022/02/25 03:25:17;;;;;;;6.03;1.50;;;2.10;82.70;;;;;;4979787;28;20519;-58
2022/02/25 03:27:43;;;;;;;2.93;1.53;;;2.10;86.60;;;;;;4983480;28;20420;-58
2022/02/25 03:30:10;;;;;;;2.60;1.37;;;2.10;87.60;;;;;;4984165;28;21144;-59
2022/02/25 03:32:36;;;;;;;5.77;1.30;;;2.00;87.80;;;;;;4983202;28;20444;-58
2022/02/25 03:35:02;;;;;;;2.07;1.67;;;2.10;88.40;;;;;;4984337;28;20414;-59
2022/02/25 03:37:29;;;;;;;2.67;1.57;;;2.10;86.40;;;;;;4984366;28;20962;-59
2022/02/25 03:39:56;;;;;;;4.03;1.73;;;2.10;85.50;;;;;;4981954;28;20537;-59
2022/02/25 03:42:22;;;;;;;2.30;1.60;;;2.10;87.00;;;;;;4983602;28;20430;-59
2022/02/25 03:44:48;;;;;;;3.17;2.00;;;2.10;87.90;;;;;;4980362;28;20445;-58
2022/02/25 03:47:15;;;;;;;5.17;1.60;;;2.10;87.10;;;;;;4982260;28;20419;-57
2022/02/25 03:49:40;;;;;;;3.23;1.70;;;2.20;88.70;;;;;;4983911;28;20456;-58
2022/02/25 03:52:07;;;;;;;1.60;1.50;;;2.20;88.70;;;;;;4985509;28;20465;-59
2022/02/25 03:54:33;;;;;;;2.53;1.50;;;2.10;88.70;;;;;;4987002;28;20207;-59
2022/02/25 03:57:00;;;;;;;1.87;1.57;;;2.20;90.70;;;;;;4985794;28;20479;-57
2022/02/25 03:59:26;;;;;;;6.10;1.83;;;2.10;91.20;;;;;;4989278;28;20496;-59
2022/02/25 04:01:54;;;;;;;2.47;2.03;;;2.10;90.30;;;;;;4985786;28;20451;-58
2022/02/25 04:04:22;;;;;;;5.73;1.80;;;2.10;91.20;;;;;;4986679;28;20790;-59
2022/02/25 04:06:49;;;;;;;2.70;1.70;;;2.10;91.40;;;;;;4988403;28;20434;-59
2022/02/25 04:09:18;;;;;;;2.57;2.10;;;2.10;92.70;;;;;;4985465;28;20428;-59
2022/02/25 04:11:45;;;;;;;2.07;1.90;;;2.10;94.00;;;;;;4985025;28;20486;-59
2022/02/25 04:14:11;;;;;;;3.20;1.73;;;2.10;94.20;;;;;;4984992;28;20472;-58
2022/02/25 04:16:36;;;;;;;6.53;2.07;;;2.10;95.00;;;;;;4989550;28;21118;-59
2022/02/25 04:19:04;;;;;;;3.67;1.63;;;2.10;95.70;;;;;;4987644;28;20440;-59
2022/02/25 04:21:30;;;;;;;12.20;1.97;;;2.00;94.80;;;;;;4987732;28;20303;-58
2022/02/25 04:23:56;;;;;;;3.20;2.00;;;2.00;94.70;;;;;;4986179;28;20517;-59
2022/02/25 04:26:22;;;;;;;3.23;1.70;;;2.00;95.00;;;;;;5001120;28;20543;-58
2022/02/25 04:28:47;;;;;;;5.70;1.70;;;2.00;95.10;;;;;;4985942;28;20219;-58
2022/02/25 04:31:13;;;;;;;4.33;2.00;;;2.00;95.10;;;;;;4982715;28;20209;-59
2022/02/25 04:33:39;;;;;;;2.73;1.70;;;1.90;95.10;;;;;;4986409;28;20857;-59
2022/02/25 04:36:05;;;;;;;4.77;2.00;;;1.90;94.80;;;;;;4985123;28;20184;-59
2022/02/25 04:38:30;;;;;;;4.67;1.80;;;1.90;92.70;;;;;;4988951;28;20747;-59
2022/02/25 04:41:01;;;;;;;2.50;1.90;;;1.90;92.20;;;;;;4986426;28;20261;-59
2022/02/25 04:43:30;;;;;;;3.53;1.93;;;1.90;90.90;;;;;;4989029;28;20185;-59
2022/02/25 04:45:57;;;;;;;3.37;1.90;;;1.80;88.50;;;;;;4988022;28;20439;-59
2022/02/25 04:48:24;;;;;;;6.23;2.60;;;1.80;86.50;;;;;;4988005;28;20553;-59
2022/02/25 04:50:49;;;;;;;5.23;2.00;;;1.80;85.10;;;;;;4986422;28;20476;-59
2022/02/25 04:53:16;;;;;;;5.23;2.40;;;1.80;84.30;;;;;;4987381;28;20436;-58
2022/02/25 04:55:46;;;;;;;11.37;2.73;;;1.80;85.60;;;;;;4986239;28;20185;-59
2022/02/25 04:58:15;;;;;;;3.30;1.80;;;1.80;86.10;;;;;;4987527;28;20426;-59
2022/02/25 05:00:41;;;;;;;2.63;2.10;;;1.70;86.60;;;;;;4987084;28;20440;-59
2022/02/25 05:03:07;;;;;;;5.93;1.90;;;1.70;87.90;;;;;;4987887;28;20448;-58
2022/02/25 05:05:33;;;;;;;2.60;2.37;;;1.70;88.40;;;;;;4986391;28;20296;-59
2022/02/25 05:07:59;;;;;;;6.90;2.90;;;1.70;89.80;;;;;;4986045;28;20523;-59
2022/02/25 05:10:28;;;;;;;2.87;2.40;;;1.70;90.90;;;;;;4984826;28;20197;-59
2022/02/25 05:12:54;;;;;;;4.70;2.50;;;1.70;91.20;;;;;;4985887;28;20426;-59
2022/02/25 05:20:50;;;;;;;8.27;2.17;;;1.60;92.20;;;;;;4982958;28;20595;-59
2022/02/25 05:23:16;;;;;;;5.30;2.37;;;1.60;93.00;;;;;;4985611;28;20455;-58
2022/02/25 05:25:42;;;;;;;7.00;2.47;;;1.60;93.50;;;;;;4981539;28;20522;-59
2022/02/25 05:28:08;;;;;;;9.17;2.67;;;1.60;92.40;;;;;;4982543;28;20424;-59
2022/02/25 05:30:35;;;;;;;9.43;2.80;;;1.60;91.80;;;;;;4981853;28;20949;-59
2022/02/25 05:33:01;;;;;;;12.10;5.07;;;1.60;91.10;;;;;;4980912;28;21007;-59
2022/02/25 05:35:27;;;;;;;9.20;2.97;;;1.60;90.90;;;;;;4985846;28;20522;-58
2022/02/25 05:37:53;;;;;;;5.10;2.50;;;1.50;91.60;;;;;;4984546;28;20218;-58
2022/02/25 05:40:21;;;;;;;6.03;3.23;;;1.50;92.30;;;;;;4982348;28;20440;-58
2022/02/25 05:42:47;;;;;;;5.23;2.17;;;1.40;93.00;;;;;;4985351;28;20435;-58
2022/02/25 05:45:15;;;;;;;8.80;2.93;;;1.40;93.60;;;;;;4984318;28;20440;-59
2022/02/25 05:47:41;;;;;;;6.27;2.43;;;1.40;93.80;;;;;;4981855;28;21166;-59
2022/02/25 05:50:12;;;;;;;5.47;2.60;;;1.30;94.10;;;;;;4981324;28;20452;-59
2022/02/25 05:52:38;;;;;;;5.10;2.13;;;1.20;94.60;;;;;;4979759;28;20436;-58
2022/02/25 05:55:04;;;;;;;2.00;1.60;;;1.20;94.50;;;;;;4984877;28;20960;-59
2022/02/25 05:57:29;;;;;;;4.13;2.20;;;1.20;94.30;;;;;;4981249;28;20181;-59
2022/02/25 05:59:55;;;;;;;4.93;2.20;;;1.10;94.50;;;;;;4981552;28;20458;-57
2022/02/25 06:02:21;;;;;;;18.93;2.70;;;1.10;95.10;;;;;;4980413;28;20177;-59
2022/02/25 06:04:47;;;;;;;9.23;2.60;;;1.10;94.80;;;;;;4983796;28;20711;-59
2022/02/25 06:07:12;;;;;;;3.07;2.83;;;1.10;94.90;;;;;;4980628;28;20420;-60
2022/02/25 06:09:38;;;;;;;5.57;2.83;;;1.10;95.30;;;;;;4975265;28;20846;-60
2022/02/25 06:12:05;;;;;;;7.13;2.70;;;1.00;95.10;;;;;;4980463;28;20204;-60
2022/02/25 06:14:30;;;;;;;5.27;3.33;;;1.00;95.30;;;;;;4981224;28;20188;-59
2022/02/25 06:16:56;;;;;;;10.60;3.03;;;1.00;94.80;;;;;;4984647;28;20824;-59
2022/02/25 06:19:22;;;;;;;4.87;2.13;;;1.00;94.50;;;;;;4980395;28;20188;-60
2022/02/25 06:21:48;;;;;;;3.33;2.77;;;1.00;94.40;;;;;;4984483;28;20254;-60
2022/02/25 06:24:14;;;;;;;4.30;2.23;;;1.00;94.00;;;;;;4983894;28;20324;-60
2022/02/25 06:26:40;;;;;;;13.37;2.50;;;1.00;94.40;;;;;;4983761;28;20850;-60
2022/02/25 06:29:07;;;;;;;4.50;2.27;;;1.00;93.90;;;;;;4984456;28;20427;-59
2022/02/25 06:31:33;;;;;;;10.30;2.73;;;1.10;92.70;;;;;;4984727;28;20218;-60
2022/02/25 06:33:58;;;;;;;4.93;2.80;;;1.10;90.90;;;;;;4984159;28;20422;-59
2022/02/25 06:36:24;;;;;;;4.90;2.80;;;1.20;90.50;;;;;;4982668;28;20181;-58
2022/02/25 06:38:50;;;;;;;7.47;3.10;;;1.20;89.30;;;;;;4982410;28;20379;-59
2022/02/25 06:41:16;;;;;;;5.67;2.43;;;1.20;90.10;;;;;;4989502;28;20208;-59
2022/02/25 06:43:42;;;;;;;6.80;2.57;;;1.10;90.90;;;;;;4988044;28;20304;-58
2022/02/25 06:46:11;;;;;;;3.47;2.20;;;1.20;91.60;;;;;;4979947;28;21192;-57
2022/02/25 06:48:40;;;;;;;10.83;3.07;;;1.20;91.50;;;;;;4986832;28;20430;-58
2022/02/25 06:51:06;;;;;;;4.73;2.50;;;1.10;91.20;;;;;;4986527;28;20473;-58
2022/02/25 06:53:32;;;;;;;6.53;2.07;;;1.10;92.30;;;;;;4984957;28;20431;-59
2022/02/25 06:55:58;;;;;;;6.40;2.27;;;1.10;92.20;;;;;;4981059;28;20423;-59
2022/02/25 06:58:24;;;;;;;4.90;2.77;;;1.10;92.00;;;;;;4985707;28;21380;-59
2022/02/25 07:00:49;;;;;;;9.30;2.67;;;1.10;92.10;;;;;;4990424;28;20230;-60
2022/02/25 07:03:15;;;;;;;3.97;2.30;;;1.20;92.70;;;;;;4998096;28;20443;-59
2022/02/25 07:05:41;;;;;;;5.77;2.90;;;1.20;92.50;;;;;;4995402;28;20184;-60
2022/02/25 07:08:08;;;;;;;6.43;2.80;;;1.20;92.40;;;;;;4985874;28;20762;-58
2022/02/25 07:10:35;;;;;;;6.73;2.63;;;1.20;92.60;;;;;;4980401;28;20343;-60
2022/02/25 07:13:02;;;;;;;5.20;3.10;;;1.20;93.50;;;;;;4986244;28;20438;-59
2022/02/25 07:15:28;;;;;;;7.00;2.63;;;1.30;94.10;;;;;;4987501;28;20841;-60
2022/02/25 07:17:54;;;;;;;7.13;3.13;;;1.30;94.30;;;;;;4984076;28;20446;-61
2022/02/25 07:20:20;;;;;;;7.70;4.00;;;1.40;93.70;;;;;;4981230;28;20212;-58
2022/02/25 07:22:46;;;;;;;8.20;3.40;;;1.40;93.40;;;;;;4980052;28;20494;-59
2022/02/25 07:25:12;;;;;;;6.43;2.77;;;1.50;92.20;;;;;;4992172;28;20175;-59
2022/02/25 07:27:38;;;;;;;9.83;3.07;;;1.60;92.20;;;;;;4987298;28;20822;-58
2022/02/25 07:30:04;;;;;;;4.53;2.37;;;1.60;91.00;;;;;;4991433;28;20454;-59
2022/02/25 07:32:30;;;;;;;6.73;3.53;;;1.60;90.40;;;;;;4992891;28;20582;-58
2022/02/25 07:34:56;;;;;;;7.63;2.63;;;1.60;90.10;;;;;;4992630;28;20851;-58
2022/02/25 07:37:21;;;;;;;5.90;2.60;;;1.60;87.60;;;;;;4986235;28;20462;-60
2022/02/25 07:39:47;;;;;;;11.43;3.97;;;1.60;87.40;;;;;;4991044;28;20253;-58
2022/02/25 07:42:14;;;;;;;7.03;3.27;;;1.70;85.20;;;;;;4989415;28;20184;-59
2022/02/25 07:44:39;;;;;;;6.17;2.97;;;1.70;84.00;;;;;;4989377;28;20728;-58
2022/02/25 07:47:05;;;;;;;5.57;2.90;;;1.70;83.80;;;;;;4986768;28;20431;-58
2022/02/25 07:49:31;;;;;;;4.73;3.07;;;1.80;82.70;;;;;;4985707;28;20181;-58
2022/02/25 07:51:57;;;;;;;6.53;2.80;;;1.80;81.00;;;;;;4994469;28;20221;-59
2022/02/25 07:54:23;;;;;;;10.63;2.30;;;1.90;79.50;;;;;;4988567;28;20943;-59
2022/02/25 07:56:49;;;;;;;6.50;2.27;;;1.90;77.70;;;;;;4991788;28;20173;-58
2022/02/25 07:59:15;;;;;;;6.13;2.53;;;2.00;74.60;;;;;;4988767;28;20530;-58
2022/02/25 08:01:41;;;;;;;6.00;2.60;;;2.10;74.00;;;;;;4990816;28;20187;-58
2022/02/25 08:04:08;;;;;;;4.27;2.33;;;2.10;73.50;;;;;;4983037;28;20260;-58
2022/02/25 08:06:34;;;;;;;6.83;2.80;;;2.10;72.70;;;;;;4984840;28;20440;-59
2022/02/25 08:09:00;;;;;;;3.00;2.23;;;2.20;73.70;;;;;;4986932;28;20488;-58
2022/02/25 08:11:26;;;;;;;4.90;2.53;;;2.20;74.30;;;;;;4989835;28;20484;-58
2022/02/25 08:13:52;;;;;;;3.00;2.03;;;2.30;70.50;;;;;;4990682;28;20174;-58
2022/02/25 08:16:17;;;;;;;6.07;2.20;;;2.40;70.20;;;;;;4984979;28;20176;-58
2022/02/25 08:18:43;;;;;;;7.73;2.17;;;2.40;69.20;;;;;;4990001;28;20205;-58
2022/02/25 08:21:09;;;;;;;5.60;2.20;;;2.50;66.60;;;;;;4990440;28;20516;-58
2022/02/25 08:23:35;;;;;;;4.30;2.20;;;2.50;65.70;;;;;;4984912;28;20229;-58
2022/02/25 08:26:00;;;;;;;8.90;1.60;;;2.50;65.70;;;;;;4984353;28;20183;-58
2022/02/25 08:28:26;;;;;;;4.80;1.73;;;2.50;64.30;;;;;;4989005;28;20179;-58
2022/02/25 08:30:52;;;;;;;5.00;2.10;;;2.50;62.90;;;;;;4987740;28;20455;-59
2022/02/25 08:33:17;;;;;;;6.73;2.40;;;2.50;62.20;;;;;;4990737;28;20185;-59
2022/02/25 08:35:43;;;;;;;3.73;2.10;;;2.50;62.00;;;;;;4984031;28;20183;-58
2022/02/25 08:38:09;;;;;;;4.30;1.97;;;2.50;61.90;;;;;;4987605;28;20667;-59
2022/02/25 08:40:37;;;;;;;4.77;1.90;;;2.50;61.20;;;;;;4990112;28;20204;-59
2022/02/25 08:43:03;;;;;;;4.13;1.77;;;2.50;61.00;;;;;;4989824;28;20936;-59
2022/02/25 08:45:29;;;;;;;7.67;2.07;;;2.50;60.60;;;;;;4984696;28;20429;-58
2022/02/25 08:47:55;;;;;;;3.37;1.60;;;2.60;61.20;;;;;;4984051;28;20173;-57
2022/02/25 08:50:22;;;;;;;7.43;2.27;;;2.70;59.80;;;;;;4986582;28;20877;-59
2022/02/25 08:52:52;;;;;;;5.73;2.90;;;2.70;58.90;;;;;;4989487;28;20420;-59
2022/02/25 08:55:20;;;;;;;4.67;1.63;;;2.70;57.90;;;;;;4992705;28;20987;-59
2022/02/25 08:57:46;;;;;;;3.97;1.90;;;2.70;57.70;;;;;;4991467;28;20502;-59
2022/02/25 09:00:17;;;;;;;11.80;3.07;;;2.80;57.60;;;;;;4987723;28;20527;-59
2022/02/25 09:02:45;;;;;;;9.17;2.37;;;2.80;57.60;;;;;;4990243;28;20848;-60
2022/02/25 09:05:11;;;;;;;5.80;2.40;;;2.80;57.30;;;;;;4988424;28;20912;-62
2022/02/25 09:07:37;;;;;;;3.83;1.87;;;2.80;57.40;;;;;;4983845;28;20439;-55
2022/02/25 09:10:08;;;;;;;4.30;1.97;;;2.90;57.20;;;;;;4986461;28;20487;-59
2022/02/25 09:12:35;;;;;;;11.13;3.83;;;2.90;57.20;;;;;;4994778;28;20459;-60
2022/02/25 09:15:04;;;;;;;6.00;2.10;;;3.00;56.70;;;;;;4989557;28;20442;-59
2022/02/25 09:17:29;;;;;;;2.63;1.57;;;3.10;56.90;;;;;;4991856;28;20613;-59
2022/02/25 09:19:55;;;;;;;5.57;2.03;;;3.10;56.20;;;;;;4990534;28;20471;-59
2022/02/25 09:22:21;;;;;;;7.97;2.03;;;3.20;56.10;;;;;;4989164;28;20268;-58
2022/02/25 09:24:46;;;;;;;8.10;1.90;;;3.20;55.80;;;;;;4990956;28;20247;-59
2022/02/25 09:27:12;;;;;;;6.00;1.60;;;3.30;55.40;;;;;;4989850;28;20187;-60
2022/02/25 09:29:38;;;;;;;10.20;2.33;;;3.40;55.20;;;;;;4987031;28;20201;-59
2022/02/25 09:32:05;;;;;;;8.73;1.90;;;3.30;54.60;;;;;;4989671;28;20199;-59
2022/02/25 09:34:30;;;;;;;6.60;1.53;;;3.40;54.80;;;;;;4989516;28;20260;-59
2022/02/25 09:36:56;;;;;;;6.20;2.10;;;3.40;54.30;;;;;;4988909;28;20515;-58
2022/02/25 09:39:22;;;;;;;5.43;2.13;;;3.50;55.10;;;;;;4989071;28;20181;-59
2022/02/25 09:41:49;;;;;;;3.80;1.33;;;3.60;54.70;;;;;;4986383;28;20177;-59
2022/02/25 09:44:15;;;;;;;6.37;1.80;;;3.80;55.50;;;;;;4990343;28;20196;-60
2022/02/25 09:46:44;;;;;;;6.10;1.90;;;3.90;54.50;;;;;;5001002;28;20413;-59
2022/02/25 09:49:10;;;;;;;4.90;1.90;;;4.10;54.60;;;;;;5004303;28;20434;-61
2022/02/25 09:51:37;;;;;;;6.63;1.93;;;4.10;53.40;;;;;;5003095;28;20464;-59
2022/02/25 09:54:03;;;;;;;7.20;2.10;;;4.20;53.90;;;;;;4993334;28;20444;-58
2022/02/25 09:56:29;;;;;;;2.67;1.37;;;4.40;52.60;;;;;;4987564;28;20420;-59
2022/02/25 09:58:57;;;;;;;9.23;2.33;;;4.40;51.30;;;;;;4986644;28;20427;-58
2022/02/25 10:01:29;;;;;;;10.40;2.73;;;4.60;51.30;;;;;;4989265;28;20263;-59
2022/02/25 10:03:55;;;;;;;17.03;3.80;;;4.70;50.10;;;;;;4984402;28;20432;-59
2022/02/25 10:06:29;;;;;;;5.90;2.10;;;4.80;49.60;;;;;;4992773;28;20514;-58
2022/02/25 10:08:56;;;;;;;4.20;1.33;;;4.80;48.50;;;;;;4991901;28;20682;-59
2022/02/25 10:11:22;;;;;;;7.63;2.87;;;4.80;48.60;;;;;;4979365;28;20465;-59
2022/02/25 10:13:48;;;;;;;8.20;1.50;;;4.80;49.00;;;;;;4984569;28;20450;-59
2022/02/25 10:16:14;;;;;;;6.40;1.67;;;4.80;48.40;;;;;;4990015;28;20173;-59
2022/02/25 10:18:42;;;;;;;10.83;1.70;;;4.80;47.50;;;;;;4984454;28;20463;-58
2022/02/25 10:21:13;;;;;;;5.57;1.47;;;4.90;48.70;;;;;;4987363;28;20539;-60
2022/02/25 10:23:44;;;;;;;4.20;1.50;;;5.10;50.30;;;;;;4981041;28;20425;-60
2022/02/25 10:26:20;;;;;;;7.80;1.43;;;5.40;50.60;;;;;;4990452;28;20476;-59
2022/02/25 10:28:48;;;;;;;4.03;1.83;;;5.60;48.10;;;;;;4980956;28;20633;-60
2022/02/25 10:31:25;;;;;;;4.70;1.70;;;5.70;47.00;;;;;;4986657;28;20499;-60
2022/02/25 10:34:15;;;;;;;15.53;1.70;;;5.60;45.00;;;;;;4986439;28;20537;-60
2022/02/25 10:36:48;;;;;;;6.90;1.37;;;5.60;44.90;;;;;;4998598;28;20429;-61
2022/02/25 10:39:17;;;;;;;3.30;1.50;;;5.60;43.90;;;;;;4993851;28;20465;-59
2022/02/25 10:42:19;;;;;;;5.80;1.70;;;5.70;44.30;;;;;;5003103;28;20419;-60
2022/02/25 10:45:01;;;;;;;6.13;1.40;;;5.80;44.60;;;;;;4987495;28;20420;-61
2022/02/25 10:47:27;;;;;;;2.47;1.40;;;5.80;44.30;;;;;;4980344;28;20519;-59
2022/02/25 10:49:59;;;;;;;5.07;2.03;;;5.90;44.30;;;;;;4988631;28;20495;-60
2022/02/25 10:52:33;;;;;;;7.23;1.47;;;5.90;43.70;;;;;;4978406;28;20465;-59
2022/02/25 10:55:01;;;;;;;4.50;1.50;;;5.80;43.60;;;;;;4986933;28;20439;-59
2022/02/25 10:57:27;;;;;;;5.90;2.00;;;6.00;44.20;;;;;;4987163;28;20412;-60
2022/02/25 10:59:54;;;;;;;6.10;1.60;;;6.30;45.00;;;;;;4989556;28;20432;-61
2022/02/25 11:02:30;;;;;;;6.40;1.43;;;6.50;42.90;;;;;;4988906;28;20467;-60
2022/02/25 11:05:10;;;;;;;3.20;1.40;;;6.60;42.50;;;;;;4992536;28;20827;-60
2022/02/25 11:07:41;;;;;;;5.10;1.30;;;6.70;42.20;;;;;;4992914;28;20443;-61
2022/02/25 11:10:09;;;;;;;6.10;1.47;;;6.90;42.90;;;;;;4997726;28;20462;-59
2022/02/25 11:12:40;;;;;;;4.70;1.40;;;6.80;41.70;;;;;;4984047;28;20465;-61
2022/02/25 11:15:09;;;;;;;4.33;1.40;;;6.60;41.50;;;;;;4989590;28;20417;-61
2022/02/25 11:17:36;;;;;;;5.53;1.50;;;6.50;42.30;;;;;;4993958;28;20544;-61
2022/02/25 11:20:04;;;;;;;4.43;1.20;;;6.40;41.70;;;;;;4981592;28;20875;-60
2022/02/25 11:22:42;;;;;;;4.03;1.20;;;6.40;42.90;;;;;;4989534;28;20458;-60
2022/02/25 11:25:13;;;;;;;3.57;1.30;;;6.60;43.20;;;;;;4991890;28;21294;-59
2022/02/25 11:27:39;;;;;;;2.27;1.10;;;7.10;42.60;;;;;;4992284;28;20505;-60
2022/02/25 11:30:04;;;;;;;3.90;1.73;;;7.70;40.10;;;;;;4989368;28;20475;-60
2022/02/25 11:32:39;;;;;;;5.83;1.63;;;8.20;39.80;;;;;;4991388;28;20584;-60
2022/02/25 11:35:14;;;;;;;4.97;1.80;;;8.50;38.20;;;;;;4989124;28;20937;-59
2022/02/25 11:37:41;;;;;;;4.00;1.50;;;8.70;39.50;;;;;;4992675;28;20944;-60
2022/02/25 11:40:08;;;;;;;3.90;1.70;;;8.70;37.40;;;;;;4985874;28;20445;-59
2022/02/25 11:42:33;;;;;;;7.53;1.70;;;8.20;36.60;;;;;;4987835;28;21031;-60
2022/02/25 11:45:23;;;;;;;4.67;1.70;;;8.10;38.00;;;;;;4997137;28;20506;-60
2022/02/25 11:47:52;;;;;;;3.93;1.57;;;8.00;38.30;;;;;;4989013;28;20202;-60
2022/02/25 11:50:37;;;;;;;4.37;1.50;;;7.70;39.20;;;;;;4986776;28;20513;-60
2022/02/25 11:53:29;;;;;;;2.97;1.70;;;7.70;40.10;;;;;;4989261;28;21001;-59
2022/02/25 11:56:12;;;;;;;4.07;1.40;;;8.00;39.80;;;;;;4981383;28;20824;-60
2022/02/25 11:58:43;;;;;;;3.00;1.20;;;7.90;39.40;;;;;;4977848;28;21100;-60
2022/02/25 12:01:16;;;;;;;4.20;1.53;;;7.80;39.80;;;;;;4985202;28;20859;-60
2022/02/25 12:04:09;;;;;;;5.27;1.70;;;7.60;40.40;;;;;;4993734;28;20421;-61
2022/02/25 12:06:53;;;;;;;9.40;2.03;;;7.30;40.30;;;;;;4988245;28;20432;-59
2022/02/25 12:09:48;;;;;;;9.60;2.47;;;6.90;41.10;;;;;;4984142;28;20463;-59
2022/02/25 12:12:20;;;;;;;6.77;1.50;;;7.00;41.90;;;;;;4977249;28;20575;-60
2022/02/25 12:15:07;;;;;;;5.23;1.90;;;7.80;42.00;;;;;;4992141;28;20958;-59
2022/02/25 12:17:39;;;;;;;2.60;1.50;;;8.10;39.60;;;;;;4988715;28;20416;-60
2022/02/25 12:20:12;;;;;;;11.00;2.27;;;8.50;38.20;;;;;;4984118;28;20965;-60
2022/02/25 12:23:05;;;;;;;4.00;1.70;;;8.20;37.70;;;;;;4986742;28;20440;-58
2022/02/25 12:25:43;;;;;;;4.40;2.40;;;7.60;38.30;;;;;;4987967;28;20423;-60
2022/02/25 12:28:31;;;;;;;11.57;2.43;;;7.20;39.30;;;;;;4986661;28;20991;-59
2022/02/25 12:31:03;;;;;;;12.17;3.43;;;6.80;40.10;;;;;;4992754;28;20543;-60
2022/02/25 12:33:35;;;;;;;3.60;1.60;;;6.40;40.20;;;;;;4982850;28;20563;-59
2022/02/25 12:36:26;;;;;;;2.50;1.50;;;6.20;40.90;;;;;;4986565;28;20458;-60
2022/02/25 12:38:59;;;;;;;5.70;1.67;;;5.90;40.90;;;;;;4981247;28;20516;-59
2022/02/25 12:41:34;;;;;;;4.40;1.70;;;5.80;40.80;;;;;;4985810;28;20456;-59
2022/02/25 12:44:06;;;;;;;3.13;1.80;;;5.70;41.40;;;;;;4986794;28;21138;-60
2022/02/25 12:46:48;;;;;;;14.00;1.97;;;5.60;41.90;;;;;;4989176;28;20934;-59
2022/02/25 12:49:17;;;;;;;6.07;1.63;;;5.80;41.90;;;;;;4993334;28;20880;-60
2022/02/25 12:51:44;;;;;;;8.57;1.67;;;6.40;41.80;;;;;;4991885;28;20456;-60
2022/02/25 12:54:18;;;;;;;4.23;1.70;;;6.80;41.30;;;;;;4988660;28;21004;-61
2022/02/25 12:56:47;;;;;;;2.47;1.50;;;7.50;40.80;;;;;;4980701;28;20433;-60
2022/02/25 12:59:16;;;;;;;5.53;2.17;;;8.30;39.60;;;;;;4983044;28;20420;-61
2022/02/25 13:01:50;;;;;;;3.07;1.37;;;8.60;38.70;;;;;;4986846;28;20881;-60
2022/02/25 13:04:28;;;;;;;5.37;1.63;;;8.40;37.00;;;;;;4985367;28;20423;-61